createdAt,value
2023-04-12T00:01:27.698Z,98019.40
2023-04-12T00:03:56.320Z,98015.89
2023-04-12T00:06:27.775Z,98010.52
2023-04-12T00:08:56.224Z,98006.48
2023-04-12T00:11:26.185Z,98006.23
2023-04-12T00:13:55.069Z,98002.74
2023-04-12T00:16:24.803Z,97995.65
2023-04-12T00:18:54.296Z,97985.61
2023-04-12T00:21:24.073Z,97979.42
2023-04-12T00:23:52.394Z,97981.55
2023-04-12T00:26:21.822Z,97978.30
2023-04-12T00:28:50.561Z,97977.95
2023-04-12T00:31:21.321Z,97973.98
2023-04-12T00:33:49.564Z,97969.17
2023-04-12T00:36:25.464Z,97966.84
2023-04-12T00:38:54.187Z,97960.75
2023-04-12T00:41:24.271Z,97962.63
2023-04-12T00:43:53.167Z,97959.86
2023-04-12T00:46:21.409Z,97956.70
2023-04-12T00:48:50.912Z,97954.39
2023-04-12T00:51:22.458Z,97953.77
2023-04-12T00:53:53.099Z,97953.44
2023-04-12T00:56:23.828Z,97950.21
2023-04-12T00:58:52.501Z,97951.41
2023-04-12T01:01:28.330Z,97949.70
2023-04-12T01:04:01.567Z,97946.73
2023-04-12T01:06:53.985Z,97942.18
2023-04-12T01:10:04.147Z,97938.88
2023-04-12T01:12:58.618Z,97938.20
2023-04-12T01:15:26.852Z,97930.33
2023-04-12T01:18:25.303Z,97926.25
2023-04-12T01:21:08.727Z,97918.51
2023-04-12T01:23:46.455Z,97918.71
2023-04-12T01:26:24.165Z,97916.16
2023-04-12T01:28:53.746Z,97917.07
2023-04-12T01:31:26.217Z,97915.33
2023-04-12T01:33:57.604Z,97913.08
2023-04-12T01:36:27.467Z,97909.96
2023-04-12T01:38:56.104Z,97907.85
2023-04-12T01:41:24.408Z,97904.42
2023-04-12T01:43:52.558Z,97903.23
2023-04-12T01:46:22.834Z,97901.73
2023-04-12T01:48:52.432Z,97901.98
2023-04-12T01:51:35.238Z,97900.48
2023-04-12T01:54:11.915Z,97903.33
2023-04-12T01:56:42.033Z,97903.38
2023-04-12T01:59:11.549Z,97902.52
2023-04-12T02:01:40.145Z,97897.39
2023-04-12T02:04:09.044Z,97896.72
2023-04-12T02:06:37.899Z,97891.91
2023-04-12T02:09:06.693Z,97891.71
2023-04-12T02:11:34.932Z,97895.16
2023-04-12T02:14:04.176Z,97891.19
2023-04-12T02:16:34.532Z,97887.69
2023-04-12T02:19:04.115Z,97886.77
2023-04-12T02:21:45.728Z,97883.42
2023-04-12T02:24:17.355Z,97881.46
2023-04-12T02:26:50.234Z,97879.70
2023-04-12T02:29:18.911Z,97876.70
2023-04-12T02:31:52.568Z,97878.41
2023-04-12T02:34:21.615Z,97873.18
2023-04-12T02:36:56.567Z,97868.51
2023-04-12T02:39:25.115Z,97870.20
2023-04-12T02:41:53.501Z,97871.73
2023-04-12T02:44:21.901Z,97872.92
2023-04-12T02:47:28.702Z,97869.09
2023-04-12T02:49:57.472Z,97869.10
2023-04-12T02:52:25.660Z,97873.24
2023-04-12T02:55:08.095Z,97873.58
2023-04-12T02:57:36.931Z,97870.12
2023-04-12T03:00:12.264Z,97869.77
2023-04-12T03:02:50.009Z,97867.19
2023-04-12T03:13:18.124Z,97870.38
2023-04-12T03:15:57.469Z,97864.80
2023-04-12T03:18:31.848Z,97868.56
2023-04-12T03:21:02.469Z,97862.14
2023-04-12T03:23:31.970Z,97862.29
2023-04-12T03:26:06.790Z,97865.57
2023-04-12T03:28:39.161Z,97862.61
2023-04-12T03:31:07.862Z,97861.39
2023-04-12T03:33:43.916Z,97861.70
2023-04-12T03:39:09.125Z,97865.70
2023-04-12T03:41:38.526Z,97865.56
2023-04-12T03:44:07.757Z,97865.76
2023-04-12T03:46:36.978Z,97866.16
2023-04-12T03:49:08.525Z,97868.28
2023-04-12T03:51:42.831Z,97866.48
2023-04-12T03:54:13.111Z,97864.34
2023-04-12T03:56:59.032Z,97863.92
2023-04-12T03:59:37.761Z,97865.02
2023-04-12T04:02:07.181Z,97867.13
2023-04-12T04:04:38.013Z,97865.75
2023-04-12T04:07:09.748Z,97870.77
2023-04-12T04:09:42.393Z,97873.73
2023-04-12T04:12:11.329Z,97873.20
2023-04-12T04:14:42.610Z,97877.23
2023-04-12T04:17:12.731Z,97882.60
2023-04-12T04:19:44.422Z,97882.26
2023-04-12T04:22:13.974Z,97880.73
2023-04-12T04:24:42.802Z,97884.23
2023-04-12T04:27:11.646Z,97884.09
2023-04-12T04:29:45.486Z,97886.50
2023-04-12T04:32:15.934Z,97886.40
2023-04-12T04:34:44.937Z,97890.06
2023-04-12T04:37:16.294Z,97891.29
2023-04-12T04:39:46.717Z,97891.86
2023-04-12T04:42:15.955Z,97894.66
2023-04-12T04:45:04.989Z,97891.75
2023-04-12T04:47:39.090Z,97893.14
2023-04-12T04:50:10.784Z,97895.54
2023-04-12T04:52:40.994Z,97894.81
2023-04-12T04:55:13.049Z,97893.89
2023-04-12T04:57:48.216Z,97896.55
2023-04-12T05:00:18.357Z,97898.71
2023-04-12T05:02:52.124Z,97898.08
2023-04-12T05:05:29.159Z,97897.94
2023-04-12T05:08:02.472Z,97899.38
2023-04-12T05:10:42.341Z,97899.83
2023-04-12T05:13:15.039Z,97898.84
2023-04-12T05:15:42.980Z,97898.88
2023-04-12T05:18:15.900Z,97896.13
2023-04-12T05:20:48.477Z,97898.38
2023-04-12T05:23:17.424Z,97895.77
2023-04-12T05:25:48.456Z,97898.02
2023-04-12T05:28:17.590Z,97901.92
2023-04-12T05:30:46.561Z,97900.70
2023-04-12T05:36:10.919Z,97906.98
2023-04-12T05:38:40.308Z,97908.61
2023-04-12T05:41:12.971Z,97905.80
2023-04-12T05:43:41.597Z,97902.69
2023-04-12T05:46:12.105Z,97906.13
2023-04-12T05:48:49.795Z,97908.01
2023-04-12T05:51:22.988Z,97907.80
2023-04-12T05:53:57.887Z,97913.05
2023-04-12T05:56:26.925Z,97904.95
2023-04-12T05:58:58.569Z,97912.73
2023-04-12T06:01:33.048Z,97916.55
2023-04-12T06:04:06.041Z,97913.37
2023-04-12T06:06:39.255Z,97918.05
2023-04-12T06:09:07.621Z,97913.05
2023-04-12T06:11:35.792Z,97918.27
2023-04-12T06:14:09.081Z,97917.40
2023-04-12T06:16:39.999Z,97913.09
2023-04-12T06:19:11.196Z,97912.23
2023-04-12T06:21:39.239Z,97910.50
2023-04-12T06:24:08.005Z,97907.84
2023-04-12T06:26:39.785Z,97909.17
2023-04-12T06:29:13.050Z,97907.53
2023-04-12T06:31:41.567Z,97904.19
2023-04-12T06:34:10.073Z,97901.70
2023-04-12T06:39:27.387Z,97903.05
2023-04-12T06:42:00.610Z,97906.49
2023-04-12T06:44:42.491Z,97904.39
2023-04-12T06:47:11.053Z,97906.77
2023-04-12T06:49:40.678Z,97902.60
2023-04-12T06:52:08.600Z,97904.86
2023-04-12T06:54:39.105Z,97901.88
2023-04-12T06:57:11.858Z,97904.23
2023-04-12T06:59:45.675Z,97901.89
2023-04-12T07:02:14.957Z,97904.54
2023-04-12T07:04:43.827Z,97906.81
2023-04-12T07:07:18.449Z,97909.64
2023-04-12T07:09:52.283Z,97913.72
2023-04-12T07:12:21.117Z,97911.95
2023-04-12T07:14:50.358Z,97913.11
2023-04-12T07:17:21.394Z,97914.45
2023-04-12T07:19:51.121Z,97913.20
2023-04-12T07:22:27.124Z,97902.58
2023-04-12T07:24:57.821Z,97902.98
2023-04-12T07:27:26.478Z,97897.16
2023-04-12T07:29:58.656Z,97898.80
2023-04-12T07:32:27.528Z,97897.52
2023-04-12T07:34:58.056Z,97897.13
2023-04-12T07:37:26.666Z,97901.44
2023-04-12T07:39:55.186Z,97895.90
2023-04-12T07:42:23.747Z,97899.19
2023-04-12T07:44:52.048Z,97900.89
2023-04-12T07:47:23.071Z,97897.78
2023-04-12T07:49:51.461Z,97897.27
2023-04-12T07:52:20.086Z,97898.31
2023-04-12T07:54:48.197Z,97892.52
2023-04-12T07:57:17.071Z,97891.87
2023-04-12T07:59:45.347Z,97891.70
2023-04-12T08:02:13.933Z,97891.35
2023-04-12T08:04:44.466Z,97891.33
2023-04-12T08:07:12.846Z,97891.79
2023-04-12T08:09:41.750Z,97886.14
2023-04-12T08:12:10.349Z,97887.34
2023-04-12T08:14:46.483Z,97884.52
2023-04-12T08:17:16.716Z,97886.13
2023-04-12T08:19:45.128Z,97887.58
2023-04-12T08:22:15.649Z,97886.98
2023-04-12T08:24:46.430Z,97879.98
2023-04-12T08:27:16.592Z,97880.09
2023-04-12T08:29:45.101Z,97879.32
2023-04-12T08:32:13.282Z,97870.00
2023-04-12T08:34:44.137Z,97874.59
2023-04-12T08:37:21.579Z,97874.48
2023-04-12T08:39:49.864Z,97868.82
2023-04-12T08:42:18.333Z,97861.79
2023-04-12T08:44:46.630Z,97864.83
2023-04-12T08:47:14.752Z,97860.11
2023-04-12T08:49:43.522Z,97860.84
2023-04-12T08:52:12.316Z,97862.54
2023-04-12T08:54:40.538Z,97852.73
2023-04-12T08:57:09.224Z,97846.88
2023-04-12T08:59:39.016Z,97845.31
2023-04-12T09:02:07.098Z,97849.54
2023-04-12T09:04:49.990Z,97845.39
2023-04-12T09:07:19.002Z,97845.99
2023-04-12T09:09:47.613Z,97844.86
2023-04-12T09:12:20.555Z,97841.77
2023-04-12T09:14:48.988Z,97846.23
2023-04-12T09:17:24.332Z,97842.89
2023-04-12T09:19:56.100Z,97838.58
2023-04-12T09:22:37.003Z,97844.76
2023-04-12T09:25:05.988Z,97836.42
2023-04-12T09:27:52.423Z,97835.48
2023-04-12T09:30:20.647Z,97834.14
2023-04-12T09:33:12.986Z,97834.52
2023-04-12T09:35:42.999Z,97838.88
2023-04-12T09:38:11.422Z,97837.65
2023-04-12T09:40:40.641Z,97834.95
2023-04-12T09:43:09.679Z,97836.95
2023-04-12T09:45:41.237Z,97835.21
2023-04-12T09:48:09.433Z,97827.17
2023-04-12T09:50:38.032Z,97827.59
2023-04-12T09:53:18.671Z,97821.42
2023-04-12T09:55:47.753Z,97819.61
2023-04-12T09:58:17.845Z,97821.59
2023-04-12T10:00:47.660Z,97830.81
2023-04-12T10:03:18.730Z,97834.41
2023-04-12T10:05:47.552Z,97832.07
2023-04-12T10:08:16.450Z,97827.10
2023-04-12T10:11:22.312Z,97830.59
2023-04-12T10:14:17.860Z,97837.17
2023-04-12T10:16:47.220Z,97838.27
2023-04-12T10:19:15.392Z,97836.73
2023-04-12T10:21:43.568Z,97833.27
2023-04-12T10:24:16.724Z,97837.48
2023-04-12T10:26:45.720Z,97837.80
2023-04-12T10:29:26.869Z,97839.99
2023-04-12T10:31:56.097Z,97837.61
2023-04-12T10:34:27.638Z,97844.36
2023-04-12T10:36:59.988Z,97839.17
2023-04-12T10:39:42.568Z,97836.86
2023-04-12T10:42:28.289Z,97838.35
2023-04-12T10:45:23.055Z,97844.36
2023-04-12T10:47:51.719Z,97844.88
2023-04-12T10:50:27.534Z,97845.86
2023-04-12T10:53:12.409Z,97846.02
2023-04-12T10:55:45.557Z,97852.50
2023-04-12T10:58:48.778Z,97855.06
2023-04-12T11:01:19.017Z,97856.89
2023-04-12T11:04:25.354Z,97858.17
2023-04-12T11:07:14.091Z,97862.47
2023-04-12T11:09:51.626Z,97858.56
2023-04-12T11:12:50.889Z,97862.34
2023-04-12T11:15:18.953Z,97863.85
2023-04-12T11:17:57.957Z,97860.67
2023-04-12T11:20:27.618Z,97858.20
2023-04-12T11:22:56.053Z,97865.73
2023-04-12T11:25:28.913Z,97855.06
2023-04-12T11:27:57.296Z,97857.05
2023-04-12T11:30:31.029Z,97856.98
2023-04-12T11:32:59.407Z,97859.33
2023-04-12T11:35:30.408Z,97858.45
2023-04-12T11:37:59.230Z,97858.27
2023-04-12T11:40:28.665Z,97855.81
2023-04-12T11:42:57.891Z,97853.70
2023-04-12T11:45:26.771Z,97850.38
2023-04-12T11:47:58.217Z,97854.89
2023-04-12T11:50:30.765Z,97855.98
2023-04-12T11:53:12.156Z,97860.13
2023-04-12T11:55:41.127Z,97859.37
2023-04-12T11:58:09.202Z,97859.05
2023-04-12T12:00:38.239Z,97857.27
2023-04-12T12:03:08.517Z,97855.05
2023-04-12T12:05:43.083Z,97853.85
2023-04-12T12:08:11.283Z,97855.10
2023-04-12T12:10:55.525Z,97850.71
2023-04-12T12:13:50.171Z,97849.91
2023-04-12T12:16:18.727Z,97846.10
2023-04-12T12:18:51.065Z,97843.15
2023-04-12T12:21:21.759Z,97838.30
2023-04-12T12:23:50.275Z,97835.52
2023-04-12T12:26:21.196Z,97836.86
2023-04-12T12:28:53.511Z,97841.42
2023-04-12T12:31:24.309Z,97846.18
2023-04-12T12:34:00.286Z,97844.84
2023-04-12T12:36:32.876Z,97846.73
2023-04-12T12:39:07.835Z,97848.56
2023-04-12T12:41:36.385Z,97839.85
2023-04-12T12:44:05.341Z,97843.45
2023-04-12T12:49:06.207Z,97841.66
2023-04-12T12:51:34.716Z,97844.55
2023-04-12T12:54:02.968Z,97839.61
2023-04-12T12:56:36.745Z,97838.05
2023-04-12T12:59:05.062Z,97839.06
2023-04-12T13:01:33.271Z,97839.33
2023-04-12T13:04:01.627Z,97842.88
2023-04-12T13:06:30.101Z,97846.80
2023-04-12T13:08:58.513Z,97845.89
2023-04-12T13:11:30.028Z,97839.95
2023-04-12T13:13:58.792Z,97838.72
2023-04-12T13:16:27.301Z,97846.85
2023-04-12T13:18:56.431Z,97845.61
2023-04-12T13:21:27.217Z,97843.13
2023-04-12T13:23:55.458Z,97849.48
2023-04-12T13:33:59.351Z,97858.08
2023-04-12T13:36:28.449Z,97861.08
2023-04-12T13:38:56.901Z,97862.45
2023-04-12T13:41:26.414Z,97858.46
2023-04-12T13:43:54.850Z,97859.06
2023-04-12T13:46:28.492Z,97855.42
2023-04-12T13:48:58.110Z,97856.44
2023-04-12T13:51:29.062Z,97853.48
2023-04-12T13:53:57.076Z,97851.38
2023-04-12T13:56:25.781Z,97852.48
2023-04-12T13:58:54.137Z,97857.26
2023-04-12T14:01:25.182Z,97858.69
2023-04-12T14:03:53.659Z,97860.30
2023-04-12T14:06:21.949Z,97864.00
2023-04-12T14:08:52.535Z,97860.11
2023-04-12T14:11:25.206Z,97859.80
2023-04-12T14:13:54.621Z,97858.63
2023-04-12T14:16:25.488Z,97867.86
2023-04-12T14:18:54.404Z,97868.52
2023-04-12T14:21:28.347Z,97871.57
2023-04-12T14:23:59.419Z,97874.77
2023-04-12T14:26:28.021Z,97882.43
2023-04-12T14:28:56.386Z,97877.93
2023-04-12T14:31:30.238Z,97878.33
2023-04-12T14:33:58.834Z,97875.94
2023-04-12T14:36:27.800Z,97872.16
2023-04-12T14:38:58.660Z,97872.04
2023-04-12T14:41:27.171Z,97870.34
2023-04-12T14:43:55.248Z,97872.09
2023-04-12T14:46:25.702Z,97868.27
2023-04-12T14:48:57.255Z,97872.82
2023-04-12T14:51:25.728Z,97868.36
2023-04-12T14:53:54.921Z,97865.35
2023-04-12T14:56:30.546Z,97878.10
2023-04-12T14:59:05.854Z,97873.14
2023-04-12T15:01:35.031Z,97868.33
2023-04-12T15:04:05.563Z,97872.02
2023-04-12T15:06:42.733Z,97871.04
2023-04-12T15:09:13.702Z,97877.36
2023-04-12T15:11:47.103Z,97876.05
2023-04-12T15:14:22.242Z,97880.98
2023-04-12T15:16:52.221Z,97879.46
2023-04-12T15:19:24.447Z,97879.66
2023-04-12T15:21:55.261Z,97877.27
2023-04-12T15:24:28.102Z,97880.58
2023-04-12T15:26:56.840Z,97881.46
2023-04-12T15:29:27.755Z,97881.30
2023-04-12T15:31:58.469Z,97876.87
2023-04-12T15:34:28.665Z,97872.05
2023-04-12T15:36:56.685Z,97871.56
2023-04-12T17:54:30.981Z,97925.00
2023-04-12T17:56:59.698Z,97920.73
2023-04-12T17:59:28.534Z,97918.84
2023-04-12T18:01:58.300Z,97915.22
2023-04-12T18:04:29.025Z,97918.38
2023-04-12T18:06:57.321Z,97922.73
2023-04-12T18:09:26.640Z,97925.01
2023-04-12T18:11:55.510Z,97923.45
2023-04-12T18:14:23.910Z,97926.77
2023-04-12T18:16:55.136Z,97924.02
2023-04-12T18:19:23.160Z,97925.79
2023-04-12T18:21:52.104Z,97925.45
2023-04-12T18:24:21.232Z,97927.37
2023-04-12T18:34:22.936Z,97917.80
2023-04-12T18:36:53.810Z,97919.23
2023-04-12T18:39:22.313Z,97920.61
2023-04-12T18:41:53.097Z,97920.26
2023-04-12T18:44:21.345Z,97920.44
2023-04-12T18:46:50.057Z,97917.71
2023-04-12T18:49:19.742Z,97916.88
2023-04-12T18:51:48.077Z,97921.55
2023-04-12T18:54:17.601Z,97919.14
2023-04-12T18:56:46.138Z,97914.15
2023-04-12T18:59:17.839Z,97914.00
2023-04-12T19:01:48.383Z,97914.41
2023-04-12T19:04:17.743Z,97912.16
2023-04-12T19:06:47.281Z,97914.25
2023-04-12T19:09:16.065Z,97910.83
2023-04-12T19:11:44.220Z,97913.27
2023-04-12T19:14:13.085Z,97912.08
2023-04-12T19:16:41.320Z,97909.30
2023-04-12T19:19:09.602Z,97912.08
2023-04-12T19:21:37.834Z,97912.94
2023-04-12T19:24:06.584Z,97912.61
2023-04-12T19:26:46.139Z,97911.58
2023-04-12T19:29:16.898Z,97905.89
2023-04-12T19:31:47.568Z,97905.94
2023-04-12T19:34:18.093Z,97902.15
2023-04-12T19:36:46.231Z,97903.37
2023-04-12T19:39:15.585Z,97901.48
2023-04-12T19:41:44.289Z,97903.09
2023-04-12T19:44:15.600Z,97898.95
2023-04-12T19:46:43.992Z,97895.36
2023-04-12T19:49:12.168Z,97896.55
2023-04-12T19:51:40.604Z,97900.72
2023-04-12T19:54:10.016Z,97896.77
2023-04-12T19:56:39.417Z,97900.61
2023-04-12T19:59:10.922Z,97899.42
2023-04-12T20:01:52.599Z,97894.23
2023-04-12T20:04:21.943Z,97891.84
2023-04-12T20:06:52.261Z,97890.64
2023-04-12T20:09:25.388Z,97894.13
2023-04-12T20:11:53.952Z,97890.86
2023-04-12T20:14:24.427Z,97891.59
2023-04-12T20:16:56.955Z,97891.82
2023-04-12T20:19:27.190Z,97893.08
2023-04-12T20:22:01.764Z,97891.89
2023-04-12T20:24:30.140Z,97893.48
2023-04-12T20:26:58.651Z,97887.45
2023-04-12T20:29:29.192Z,97882.61
2023-04-12T20:31:57.814Z,97883.32
2023-04-12T20:34:27.950Z,97889.77
2023-04-12T20:36:56.250Z,97886.86
2023-04-12T20:39:24.885Z,97886.02
2023-04-12T20:41:55.296Z,97888.28
2023-04-12T20:44:23.502Z,97887.13
2023-04-12T20:46:52.835Z,97882.29
2023-04-12T20:49:21.548Z,97880.92
2023-04-12T20:51:49.960Z,97882.02
2023-04-12T20:54:19.865Z,97878.08
2023-04-12T20:56:47.958Z,97872.92
2023-04-12T20:59:21.858Z,97878.16
2023-04-12T21:01:51.457Z,97884.23
2023-04-12T21:04:20.531Z,97884.11
2023-04-12T21:06:50.534Z,97884.84
2023-04-12T21:09:18.770Z,97880.40
2023-04-12T21:11:47.082Z,97884.06
2023-04-12T21:14:22.062Z,97884.11
2023-04-12T21:16:51.235Z,97883.11
2023-04-12T21:19:19.329Z,97881.25
2023-04-12T21:21:47.653Z,97880.44
2023-04-12T21:24:16.359Z,97881.84
2023-04-12T21:26:45.194Z,97882.89
2023-04-12T21:36:54.281Z,97874.52
2023-04-12T21:39:22.371Z,97875.77
2023-04-12T21:41:50.554Z,97875.45
2023-04-12T21:44:19.939Z,97876.21
2023-04-12T21:46:48.070Z,97873.31
2023-04-12T21:49:16.564Z,97874.61
2023-04-12T21:51:46.860Z,97871.59
2023-04-12T21:54:15.751Z,97872.91
2023-04-12T21:56:44.322Z,97869.41
2023-04-12T21:59:12.626Z,97869.04
2023-04-12T22:01:42.619Z,97869.69
2023-04-12T22:04:12.077Z,97872.80
2023-04-12T22:06:44.483Z,97870.73
2023-04-12T22:09:12.986Z,97869.70
2023-04-12T22:11:41.471Z,97869.52
2023-04-12T22:14:15.616Z,97867.45
2023-04-12T22:16:45.381Z,97865.38
2023-04-12T22:19:13.471Z,97865.18
2023-04-12T22:21:42.551Z,97866.39
2023-04-12T22:24:10.859Z,97866.90
2023-04-12T22:26:38.924Z,97866.52
2023-04-12T22:29:08.107Z,97865.27
2023-04-12T22:31:38.478Z,97866.92
2023-04-12T22:34:06.561Z,97864.48
2023-04-12T22:36:42.364Z,97866.49
2023-04-12T22:39:10.763Z,97860.73
2023-04-12T22:41:39.049Z,97865.14
2023-04-12T22:44:09.412Z,97865.92
2023-04-12T22:46:39.341Z,97861.02
2023-04-12T22:49:07.836Z,97857.48
2023-04-12T22:51:36.637Z,97856.35
2023-04-12T22:54:06.296Z,97856.59
2023-04-12T22:56:41.777Z,97859.23
2023-04-12T22:59:10.572Z,97857.86
2023-04-12T23:01:38.892Z,97852.01
2023-04-12T23:04:09.707Z,97855.84
2023-04-12T23:06:40.260Z,97860.34
2023-04-12T23:09:10.504Z,97859.32
2023-04-12T23:11:39.942Z,97860.88
2023-04-12T23:14:17.710Z,97863.27
2023-04-12T23:16:46.370Z,97863.23
2023-04-12T23:19:14.943Z,97865.10
2023-04-12T23:21:43.470Z,97865.75
2023-04-12T23:24:15.432Z,97867.77
2023-04-12T23:26:45.443Z,97864.09
2023-04-12T23:29:13.819Z,97867.14
2023-04-12T23:31:45.518Z,97870.54
2023-04-12T23:34:16.540Z,97869.45
2023-04-12T23:36:44.651Z,97870.27
2023-04-12T23:39:12.707Z,97869.74
2023-04-12T23:41:42.074Z,97870.23
2023-04-12T23:44:12.058Z,97862.48
2023-04-12T23:46:43.088Z,97856.64
2023-04-12T23:49:12.320Z,97855.45
2023-04-12T23:51:47.924Z,97854.97
2023-04-12T23:54:19.571Z,97855.88
2023-04-12T23:56:47.825Z,97853.19
2023-04-12T23:59:22.370Z,97852.70
